CheckWX is a tool to help pilots better visualize weather data.  It is not intended as a substitute for an official pre-flight weather briefing.

02:39:53 UTC

LFPO METAR
Paris-Orly Airport
Paris, France
Current

40 mins ago

LFPO 080200Z 23016KT 190V250 9999 SCT014 BKN020 10/08 Q1014 TEMPO 4000 -DZ BKN008
Observed
Dec-8 @ 02:00 UTC
Wind
  • 230° at 16 KTS
Visibility
10,000+ meters
Flight Rules
MVFR
Cloud Levels
  • Scattered at 1,400' AGL
  • Broken at 2,000' AGL
Temperature
10°C / 50°F
Dewpoint
C / 46°F
Humidity
88%
Altimeter
29.94" Hg
Pressure
1013.92 hPa
Previous

1 hour ago

LFPO 080130Z 22014KT 9999 SCT009 BKN017 10/09 Q1014 NOSIG
Observed
Dec-8 @ 01:30 UTC
Wind
  • 220° at 14 KTS
Visibility
10,000+ meters
Flight Rules
MVFR
Cloud Levels
  • Scattered at 900' AGL
  • Broken at 1,700' AGL
Temperature
10°C / 50°F
Dewpoint
C / 48°F
Humidity
94%
Altimeter
29.94" Hg
Pressure
1013.92 hPa
Previous

2 hours ago

LFPO 080100Z 21012KT 180V240 9999 -DZRA BKN008 10/09 Q1015 NOSIG
Observed
Dec-8 @ 01:00 UTC
Wind
  • 210° at 12 KTS
Visibility
10,000+ meters
Flight Rules
IFR
Conditions
Light Drizzle, Light Rain
Cloud Levels
  • Broken at 800' AGL
Temperature
10°C / 50°F
Dewpoint
C / 48°F
Humidity
94%
Altimeter
29.97" Hg
Pressure
1014.92 hPa